Terminal Aerodrome Forecast
Issued by NWS

Home | Current Version | Previous Version | Text Only | Print | Product List | Glossary On
Versions: 1 2 3 4 5 6 7 8 9 10 11 12 13 14 15 16 17
000
FTUS46 KSGX 301700
TAFCRQ
TAF
KCRQ 301720Z 3018/0118 VRB03KT P6SM SKC
     FM301900 24008KT P6SM SKC
     FM010100 VRB04KT P6SM FEW007
     FM010500 VRB04KT P6SM OVC006
     FM011600 VRB04KT P6SM BKN009
     FM011700 VRB04KT P6SM SKC=

USA.gov is the U.S. government's official web portal to all federal, state and local government web resources and services.